Bhiwandi, India
Current Conditions -  °F | °C
As of 3:40 AM on Friday 19 Dec 2014 (Local Time) from VABB Reporting Station
Smoke Smoke  
Wind Chill: 73°   Ceiling: Unl
Heat Index: 73°   Visibility: 1.7mi
Dew Point: 41°   Wind: 9mph
Humidity: 31%   Direction: 40°NE
Pressure: 29.97"   Gusts: NA
Location:  19.3°N, 73.05°E
Report Text: VABB 182240Z 04008KT 2800 FU NSC 23/05 Q1015 NOSIG
Loading
Personal Weather Stations






























Interactive Weather Map New forecast layout! Learn more

10-Day Weather Forecast

Advertisements
Track Severe Weather on mobile